sensor_id;sensor_type;location;lat;lon;timestamp;pressure;altitude;pressure_sealevel;temperature;humidity
64841;BME280;51307;52.162;7.560;2023-08-06T00:00:48;100101.78;;;15.78;73.27
64841;BME280;51307;52.162;7.560;2023-08-06T00:03:14;100100.22;;;15.51;74.47
64841;BME280;51307;52.162;7.560;2023-08-06T00:05:42;100106.19;;;15.59;74.42
64841;BME280;51307;52.162;7.560;2023-08-06T00:08:08;100094.78;;;15.64;74.12
64841;BME280;51307;52.162;7.560;2023-08-06T00:10:46;100092.94;;;15.58;74.48
64841;BME280;51307;52.162;7.560;2023-08-06T00:13:15;100085.47;;;15.60;74.09
64841;BME280;51307;52.162;7.560;2023-08-06T00:15:41;100089.59;;;15.76;73.42
64841;BME280;51307;52.162;7.560;2023-08-06T00:18:06;100081.69;;;15.68;73.51
64841;BME280;51307;52.162;7.560;2023-08-06T00:20:31;100075.28;;;15.62;73.93
64841;BME280;51307;52.162;7.560;2023-08-06T00:22:57;100067.00;;;15.57;73.88
64841;BME280;51307;52.162;7.560;2023-08-06T00:25:25;100070.88;;;15.81;73.32
64841;BME280;51307;52.162;7.560;2023-08-06T00:27:51;100068.00;;;15.76;73.56
64841;BME280;51307;52.162;7.560;2023-08-06T00:30:16;100061.78;;;15.69;73.55
64841;BME280;51307;52.162;7.560;2023-08-06T00:32:42;100062.41;;;15.71;73.02
64841;BME280;51307;52.162;7.560;2023-08-06T00:35:07;100057.69;;;15.53;73.73
64841;BME280;51307;52.162;7.560;2023-08-06T00:37:33;100049.38;;;15.48;74.51
64841;BME280;51307;52.162;7.560;2023-08-06T00:39:58;100055.81;;;15.60;73.50
64841;BME280;51307;52.162;7.560;2023-08-06T00:42:29;100064.75;;;15.47;74.19
64841;BME280;51307;52.162;7.560;2023-08-06T00:44:54;100063.50;;;15.50;74.24
64841;BME280;51307;52.162;7.560;2023-08-06T00:47:23;100062.25;;;15.45;74.64
64841;BME280;51307;52.162;7.560;2023-08-06T00:49:51;100055.41;;;15.36;74.86
64841;BME280;51307;52.162;7.560;2023-08-06T00:52:19;100062.84;;;15.61;74.04
64841;BME280;51307;52.162;7.560;2023-08-06T00:54:47;100050.81;;;15.37;75.21
64841;BME280;51307;52.162;7.560;2023-08-06T00:57:13;100059.13;;;15.49;74.83
64841;BME280;51307;52.162;7.560;2023-08-06T00:59:39;100060.00;;;15.42;75.11
64841;BME280;51307;52.162;7.560;2023-08-06T01:02:05;100064.53;;;15.42;75.38
64841;BME280;51307;52.162;7.560;2023-08-06T01:04:31;100066.19;;;15.50;75.15
64841;BME280;51307;52.162;7.560;2023-08-06T01:15:28;100048.78;;;15.52;74.38
64841;BME280;51307;52.162;7.560;2023-08-06T01:17:54;100053.31;;;15.58;74.46
64841;BME280;51307;52.162;7.560;2023-08-06T01:20:20;100042.13;;;15.55;74.69
64841;BME280;51307;52.162;7.560;2023-08-06T01:22:48;100043.38;;;15.39;74.98
64841;BME280;51307;52.162;7.560;2023-08-06T01:25:16;100036.13;;;15.39;75.21
64841;BME280;51307;52.162;7.560;2023-08-06T01:27:48;100039.47;;;15.41;75.37
64841;BME280;51307;52.162;7.560;2023-08-06T01:30:25;100036.53;;;15.50;74.78
64841;BME280;51307;52.162;7.560;2023-08-06T01:33:00;100040.91;;;15.44;75.01
64841;BME280;51307;52.162;7.560;2023-08-06T01:35:34;100035.50;;;15.37;75.31
64841;BME280;51307;52.162;7.560;2023-08-06T01:38:07;100026.78;;;15.49;75.24
64841;BME280;51307;52.162;7.560;2023-08-06T01:40:33;100026.41;;;15.45;75.45
64841;BME280;51307;52.162;7.560;2023-08-06T01:42:59;100014.75;;;15.51;75.13
64841;BME280;51307;52.162;7.560;2023-08-06T01:45:25;100016.44;;;15.32;75.92
64841;BME280;51307;52.162;7.560;2023-08-06T01:47:50;100028.25;;;15.38;75.49
64841;BME280;51307;52.162;7.560;2023-08-06T01:50:18;100018.94;;;15.27;76.01
64841;BME280;51307;52.162;7.560;2023-08-06T01:52:44;100020.56;;;15.55;74.87
64841;BME280;51307;52.162;7.560;2023-08-06T01:55:09;100022.84;;;15.31;75.51
64841;BME280;51307;52.162;7.560;2023-08-06T01:57:35;100007.94;;;15.28;75.25
64841;BME280;51307;52.162;7.560;2023-08-06T02:00:00;100012.06;;;15.44;75.18
64841;BME280;51307;52.162;7.560;2023-08-06T02:02:26;100006.47;;;15.33;75.37
64841;BME280;51307;52.162;7.560;2023-08-06T02:04:51;100004.88;;;15.11;76.16
64841;BME280;51307;52.162;7.560;2023-08-06T02:07:17;100001.72;;;15.28;75.81
64841;BME280;51307;52.162;7.560;2023-08-06T02:09:42;100003.41;;;15.42;75.17
64841;BME280;51307;52.162;7.560;2023-08-06T02:12:08;99997.00;;;15.17;76.52
64841;BME280;51307;52.162;7.560;2023-08-06T02:14:34;99994.44;;;15.35;75.62
64841;BME280;51307;52.162;7.560;2023-08-06T02:16:59;99991.34;;;15.38;75.29
64841;BME280;51307;52.162;7.560;2023-08-06T02:19:25;99984.53;;;15.42;75.58
64841;BME280;51307;52.162;7.560;2023-08-06T02:21:50;99993.25;;;15.18;76.03
64841;BME280;51307;52.162;7.560;2023-08-06T02:24:16;99988.66;;;15.32;75.83
64841;BME280;51307;52.162;7.560;2023-08-06T02:26:41;99982.91;;;15.15;76.13
64841;BME280;51307;52.162;7.560;2023-08-06T02:29:07;99983.09;;;15.20;75.78
64841;BME280;51307;52.162;7.560;2023-08-06T02:31:32;99980.78;;;15.30;75.41
64841;BME280;51307;52.162;7.560;2023-08-06T02:33:57;99986.59;;;15.27;75.41
64841;BME280;51307;52.162;7.560;2023-08-06T02:36:23;99988.28;;;15.15;75.96
64841;BME280;51307;52.162;7.560;2023-08-06T02:38:49;99980.63;;;15.18;75.83
64841;BME280;51307;52.162;7.560;2023-08-06T02:41:15;99979.97;;;15.23;75.51
64841;BME280;51307;52.162;7.560;2023-08-06T02:43:40;99969.84;;;15.18;75.87
64841;BME280;51307;52.162;7.560;2023-08-06T02:46:06;99973.13;;;15.27;75.35
64841;BME280;51307;52.162;7.560;2023-08-06T02:48:31;99970.06;;;15.17;75.99
64841;BME280;51307;52.162;7.560;2023-08-06T02:50:58;99974.56;;;15.29;75.46
64841;BME280;51307;52.162;7.560;2023-08-06T02:53:24;99963.56;;;15.31;75.33
64841;BME280;51307;52.162;7.560;2023-08-06T02:55:50;99965.00;;;15.34;75.53
64841;BME280;51307;52.162;7.560;2023-08-06T02:58:16;99957.56;;;15.42;75.00
64841;BME280;51307;52.162;7.560;2023-08-06T03:00:43;99966.69;;;15.28;75.46
64841;BME280;51307;52.162;7.560;2023-08-06T03:03:09;99961.75;;;15.25;75.54
64841;BME280;51307;52.162;7.560;2023-08-06T03:05:35;99959.84;;;15.32;75.43
64841;BME280;51307;52.162;7.560;2023-08-06T03:08:00;99957.97;;;15.39;75.38
64841;BME280;51307;52.162;7.560;2023-08-06T03:10:26;99956.69;;;15.49;74.47
64841;BME280;51307;52.162;7.560;2023-08-06T03:12:51;99959.22;;;15.30;75.63
64841;BME280;51307;52.162;7.560;2023-08-06T03:15:17;99960.88;;;15.31;75.58
64841;BME280;51307;52.162;7.560;2023-08-06T03:17:42;99961.72;;;15.32;75.36
64841;BME280;51307;52.162;7.560;2023-08-06T03:20:09;99958.16;;;15.38;75.19
64841;BME280;51307;52.162;7.560;2023-08-06T03:22:35;99953.63;;;15.38;75.35
64841;BME280;51307;52.162;7.560;2023-08-06T03:25:00;99953.41;;;15.33;75.49
64841;BME280;51307;52.162;7.560;2023-08-06T03:27:26;99948.66;;;15.28;75.70
64841;BME280;51307;52.162;7.560;2023-08-06T03:29:51;99948.84;;;15.40;75.24
64841;BME280;51307;52.162;7.560;2023-08-06T03:32:17;99944.31;;;15.34;75.58
64841;BME280;51307;52.162;7.560;2023-08-06T03:34:43;99949.28;;;15.30;75.74
64841;BME280;51307;52.162;7.560;2023-08-06T03:37:08;99939.97;;;15.26;75.86
64841;BME280;51307;52.162;7.560;2023-08-06T03:39:34;99933.31;;;15.29;75.69
64841;BME280;51307;52.162;7.560;2023-08-06T03:41:59;99929.59;;;15.23;75.89
64841;BME280;51307;52.162;7.560;2023-08-06T03:44:25;99936.22;;;15.41;75.21
64841;BME280;51307;52.162;7.560;2023-08-06T03:46:52;99925.28;;;15.16;76.08
64841;BME280;51307;52.162;7.560;2023-08-06T03:49:17;99928.16;;;15.21;76.00
64841;BME280;51307;52.162;7.560;2023-08-06T03:51:43;99934.34;;;15.28;75.69
64841;BME280;51307;52.162;7.560;2023-08-06T03:54:08;99937.06;;;15.28;75.80
64841;BME280;51307;52.162;7.560;2023-08-06T03:56:34;99935.19;;;15.22;75.92
64841;BME280;51307;52.162;7.560;2023-08-06T03:58:59;99931.03;;;15.26;75.96
64841;BME280;51307;52.162;7.560;2023-08-06T04:01:25;99930.44;;;15.24;75.92
64841;BME280;51307;52.162;7.560;2023-08-06T04:03:50;99931.88;;;15.26;75.95
64841;BME280;51307;52.162;7.560;2023-08-06T04:06:16;99929.78;;;15.28;76.27
64841;BME280;51307;52.162;7.560;2023-08-06T04:08:41;99933.13;;;15.24;75.91
64841;BME280;51307;52.162;7.560;2023-08-06T04:11:07;99926.09;;;15.16;76.43
64841;BME280;51307;52.162;7.560;2023-08-06T04:13:32;99941.00;;;15.25;76.19
64841;BME280;51307;52.162;7.560;2023-08-06T04:16:04;99942.25;;;15.16;76.27
64841;BME280;51307;52.162;7.560;2023-08-06T04:18:29;99933.09;;;15.30;76.04
64841;BME280;51307;52.162;7.560;2023-08-06T04:20:55;99932.69;;;15.27;75.97
64841;BME280;51307;52.162;7.560;2023-08-06T04:23:22;99937.66;;;15.23;76.03
64841;BME280;51307;52.162;7.560;2023-08-06T04:25:48;99936.44;;;15.19;76.53
64841;BME280;51307;52.162;7.560;2023-08-06T04:28:13;99935.19;;;15.22;76.25
64841;BME280;51307;52.162;7.560;2023-08-06T04:30:39;99930.25;;;15.12;76.70
64841;BME280;51307;52.162;7.560;2023-08-06T04:33:04;99931.88;;;15.26;76.06
64841;BME280;51307;52.162;7.560;2023-08-06T04:35:30;99929.00;;;15.21;76.62
64841;BME280;51307;52.162;7.560;2023-08-06T04:37:55;99932.47;;;15.28;76.52
64841;BME280;51307;52.162;7.560;2023-08-06T04:40:21;99934.59;;;15.20;76.66
64841;BME280;51307;52.162;7.560;2023-08-06T04:42:46;99938.09;;;15.27;76.25
64841;BME280;51307;52.162;7.560;2023-08-06T04:45:12;99936.41;;;15.26;76.62
64841;BME280;51307;52.162;7.560;2023-08-06T04:47:37;99938.09;;;15.27;76.60
64841;BME280;51307;52.162;7.560;2023-08-06T04:50:03;99940.59;;;15.22;76.81
64841;BME280;51307;52.162;7.560;2023-08-06T04:52:29;99945.13;;;15.35;76.43
64841;BME280;51307;52.162;7.560;2023-08-06T04:54:54;99941.59;;;15.34;76.88
64841;BME280;51307;52.162;7.560;2023-08-06T04:57:20;99944.31;;;15.34;76.39
64841;BME280;51307;52.162;7.560;2023-08-06T04:59:46;99942.78;;;15.58;75.64
64841;BME280;51307;52.162;7.560;2023-08-06T05:02:11;99944.50;;;15.39;76.47
64841;BME280;51307;52.162;7.560;2023-08-06T05:04:37;99936.41;;;15.39;76.93
64841;BME280;51307;52.162;7.560;2023-08-06T05:07:03;99939.50;;;15.36;77.12
64841;BME280;51307;52.162;7.560;2023-08-06T05:09:28;99941.59;;;15.34;77.70
64841;BME280;51307;52.162;7.560;2023-08-06T05:11:54;99943.88;;;15.44;76.66
64841;BME280;51307;52.162;7.560;2023-08-06T05:14:20;99947.81;;;15.41;77.29
64841;BME280;51307;52.162;7.560;2023-08-06T05:16:45;99949.25;;;15.51;76.88
64841;BME280;51307;52.162;7.560;2023-08-06T05:19:11;99944.88;;;15.50;77.39
64841;BME280;51307;52.162;7.560;2023-08-06T05:21:36;99942.59;;;15.53;76.94
64841;BME280;51307;52.162;7.560;2023-08-06T05:24:02;99940.00;;;15.72;76.18
64841;BME280;51307;52.162;7.560;2023-08-06T05:26:27;99942.16;;;15.56;76.99
64841;BME280;51307;52.162;7.560;2023-08-06T05:28:53;99947.38;;;15.44;78.03
64841;BME280;51307;52.162;7.560;2023-08-06T05:31:18;99945.84;;;15.69;77.33
64841;BME280;51307;52.162;7.560;2023-08-06T05:33:44;99953.28;;;15.73;77.24
64841;BME280;51307;52.162;7.560;2023-08-06T05:36:09;99953.28;;;15.73;76.56
64841;BME280;51307;52.162;7.560;2023-08-06T05:38:35;99950.53;;;15.87;75.90
64841;BME280;51307;52.162;7.560;2023-08-06T05:41:00;99951.38;;;15.80;76.79
64841;BME280;51307;52.162;7.560;2023-08-06T05:43:26;99949.09;;;15.84;76.62
64841;BME280;51307;52.162;7.560;2023-08-06T05:45:51;99940.97;;;15.91;75.61
64841;BME280;51307;52.162;7.560;2023-08-06T05:48:17;99943.19;;;16.01;76.09
64841;BME280;51307;52.162;7.560;2023-08-06T05:50:43;99939.28;;;15.90;76.31
64841;BME280;51307;52.162;7.560;2023-08-06T05:53:11;99945.06;;;16.00;75.78
64841;BME280;51307;52.162;7.560;2023-08-06T05:55:36;99944.44;;;15.98;76.50
64841;BME280;51307;52.162;7.560;2023-08-06T05:58:03;99938.94;;;16.11;75.76
64841;BME280;51307;52.162;7.560;2023-08-06T06:00:29;99937.06;;;16.12;76.05
64841;BME280;51307;52.162;7.560;2023-08-06T06:02:54;99943.03;;;16.21;75.91
64841;BME280;51307;52.162;7.560;2023-08-06T06:05:20;99949.44;;;16.26;76.24
64841;BME280;51307;52.162;7.560;2023-08-06T06:07:45;99937.50;;;16.41;74.90
64841;BME280;51307;52.162;7.560;2023-08-06T06:10:11;99937.50;;;16.41;74.46
64841;BME280;51307;52.162;7.560;2023-08-06T06:12:38;99948.84;;;16.24;75.21
64841;BME280;51307;52.162;7.560;2023-08-06T06:15:04;99953.41;;;16.24;75.25
64841;BME280;51307;52.162;7.560;2023-08-06T06:17:30;99956.22;;;16.36;75.04
64841;BME280;51307;52.162;7.560;2023-08-06T06:19:55;99959.91;;;16.41;75.23
64841;BME280;51307;52.162;7.560;2023-08-06T06:22:21;99958.63;;;16.51;75.18
64841;BME280;51307;52.162;7.560;2023-08-06T06:24:46;99957.41;;;16.46;74.81
64841;BME280;51307;52.162;7.560;2023-08-06T06:27:12;99961.59;;;16.42;75.36
64841;BME280;51307;52.162;7.560;2023-08-06T06:29:38;99960.19;;;16.33;75.76
64841;BME280;51307;52.162;7.560;2023-08-06T06:32:04;99965.97;;;16.37;75.15
64841;BME280;51307;52.162;7.560;2023-08-06T06:34:29;99968.38;;;16.52;75.00
64841;BME280;51307;52.162;7.560;2023-08-06T06:36:55;99970.13;;;16.39;74.66
64841;BME280;51307;52.162;7.560;2023-08-06T06:39:21;99969.66;;;16.49;74.31
64841;BME280;51307;52.162;7.560;2023-08-06T06:41:46;99971.53;;;16.49;74.37
64841;BME280;51307;52.162;7.560;2023-08-06T06:44:13;99957.41;;;16.46;75.00
64841;BME280;51307;52.162;7.560;2023-08-06T06:46:39;99959.06;;;16.48;74.77
64841;BME280;51307;52.162;7.560;2023-08-06T06:49:04;99959.38;;;16.58;74.32
64841;BME280;51307;52.162;7.560;2023-08-06T06:51:29;99962.72;;;16.60;74.48
64841;BME280;51307;52.162;7.560;2023-08-06T06:53:57;99965.06;;;16.50;75.37
64841;BME280;51307;52.162;7.560;2023-08-06T06:56:23;99956.84;;;16.63;74.95
64841;BME280;51307;52.162;7.560;2023-08-06T06:58:48;99952.91;;;16.66;74.84
64841;BME280;51307;52.162;7.560;2023-08-06T07:01:14;99953.63;;;16.54;75.50
64841;BME280;51307;52.162;7.560;2023-08-06T07:03:40;99954.78;;;16.65;75.09
64841;BME280;51307;52.162;7.560;2023-08-06T07:06:06;99957.47;;;16.65;76.37
64841;BME280;51307;52.162;7.560;2023-08-06T07:08:32;99963.88;;;16.71;74.83
64841;BME280;51307;52.162;7.560;2023-08-06T07:11:04;99962.44;;;16.68;74.71
64841;BME280;51307;52.162;7.560;2023-08-06T07:13:31;99970.25;;;16.76;74.07
64841;BME280;51307;52.162;7.560;2023-08-06T07:15:57;99960.97;;;16.91;73.89
64841;BME280;51307;52.162;7.560;2023-08-06T07:18:24;99968.34;;;16.84;73.56
64841;BME280;51307;52.162;7.560;2023-08-06T07:20:54;99958.78;;;16.81;74.23
64841;BME280;51307;52.162;7.560;2023-08-06T07:23:25;99963.88;;;16.71;72.47
64841;BME280;51307;52.162;7.560;2023-08-06T07:25:51;99969.97;;;16.85;72.95
64841;BME280;51307;52.162;7.560;2023-08-06T07:28:17;99970.97;;;16.90;73.68
64841;BME280;51307;52.162;7.560;2023-08-06T07:30:44;99970.59;;;16.87;73.31
64841;BME280;51307;52.162;7.560;2023-08-06T07:33:10;99972.06;;;16.83;73.80
64841;BME280;51307;52.162;7.560;2023-08-06T07:35:36;99979.78;;;16.79;73.40
64841;BME280;51307;52.162;7.560;2023-08-06T07:38:02;99974.78;;;16.83;73.90
64841;BME280;51307;52.162;7.560;2023-08-06T07:40:28;99975.00;;;17.00;73.10
64841;BME280;51307;52.162;7.560;2023-08-06T07:42:54;99964.00;;;17.01;73.86
64841;BME280;51307;52.162;7.560;2023-08-06T07:45:19;99979.09;;;17.09;73.35
64841;BME280;51307;52.162;7.560;2023-08-06T07:47:45;99974.19;;;16.99;71.88
64841;BME280;51307;52.162;7.560;2023-08-06T07:50:10;99975.28;;;17.17;72.14
64841;BME280;51307;52.162;7.560;2023-08-06T07:52:36;99971.38;;;17.12;71.52
64841;BME280;51307;52.162;7.560;2023-08-06T07:55:01;99977.09;;;17.23;71.24
64841;BME280;51307;52.162;7.560;2023-08-06T07:57:30;99966.56;;;17.14;71.24
64841;BME280;51307;52.162;7.560;2023-08-06T07:59:56;99965.34;;;17.10;70.97
64841;BME280;51307;52.162;7.560;2023-08-06T08:02:21;99967.09;;;17.23;70.11
64841;BME280;51307;52.162;7.560;2023-08-06T08:04:50;99969.00;;;17.41;69.52
64841;BME280;51307;52.162;7.560;2023-08-06T08:07:15;99966.09;;;17.43;69.94
64841;BME280;51307;52.162;7.560;2023-08-06T08:09:41;99968.41;;;17.58;69.08
64841;BME280;51307;52.162;7.560;2023-08-06T08:12:06;99967.63;;;17.51;68.14
64841;BME280;51307;52.162;7.560;2023-08-06T08:14:32;99969.44;;;17.57;67.62
64841;BME280;51307;52.162;7.560;2023-08-06T08:17:04;99965.53;;;17.53;68.59
64841;BME280;51307;52.162;7.560;2023-08-06T08:19:31;99964.25;;;17.37;71.04
64841;BME280;51307;52.162;7.560;2023-08-06T08:21:56;99967.25;;;17.66;69.86
64841;BME280;51307;52.162;7.560;2023-08-06T08:24:23;99972.88;;;17.64;69.44
64841;BME280;51307;52.162;7.560;2023-08-06T08:26:52;99971.41;;;17.50;69.91
64841;BME280;51307;52.162;7.560;2023-08-06T08:29:19;99971.63;;;17.29;69.59
64841;BME280;51307;52.162;7.560;2023-08-06T08:31:45;99974.31;;;17.48;70.15
64841;BME280;51307;52.162;7.560;2023-08-06T08:34:11;99968.41;;;17.58;69.57
64841;BME280;51307;52.162;7.560;2023-08-06T08:36:36;99973.88;;;17.51;69.17
64841;BME280;51307;52.162;7.560;2023-08-06T08:39:02;99968.16;;;17.78;69.10
64841;BME280;51307;52.162;7.560;2023-08-06T08:41:29;99967.31;;;17.59;69.63
64841;BME280;51307;52.162;7.560;2023-08-06T08:43:58;99970.94;;;17.71;64.66
64841;BME280;51307;52.162;7.560;2023-08-06T08:46:26;99968.34;;;17.76;64.91
64841;BME280;51307;52.162;7.560;2023-08-06T08:48:53;99968.50;;;17.81;64.90
64841;BME280;51307;52.162;7.560;2023-08-06T08:51:20;99966.41;;;17.84;66.84
64841;BME280;51307;52.162;7.560;2023-08-06T08:53:47;99960.66;;;17.92;66.04
64841;BME280;51307;52.162;7.560;2023-08-06T08:56:15;99967.13;;;17.91;65.18
64841;BME280;51307;52.162;7.560;2023-08-06T08:58:41;99972.13;;;18.06;64.68
64841;BME280;51307;52.162;7.560;2023-08-06T09:01:08;99961.19;;;18.12;65.25
64841;BME280;51307;52.162;7.560;2023-08-06T09:03:36;99968.78;;;18.22;64.39
64841;BME280;51307;52.162;7.560;2023-08-06T09:06:02;99967.47;;;18.25;66.01
64841;BME280;51307;52.162;7.560;2023-08-06T09:08:34;99962.19;;;18.30;65.54
64841;BME280;51307;52.162;7.560;2023-08-06T09:11:02;99965.38;;;18.27;66.22
64841;BME280;51307;52.162;7.560;2023-08-06T09:13:30;99964.47;;;18.03;65.46
64841;BME280;51307;52.162;7.560;2023-08-06T09:15:55;99963.41;;;18.34;65.83
64841;BME280;51307;52.162;7.560;2023-08-06T09:18:27;99960.59;;;18.41;66.71
64841;BME280;51307;52.162;7.560;2023-08-06T09:20:54;99964.81;;;18.37;65.93
64841;BME280;51307;52.162;7.560;2023-08-06T09:23:19;99959.00;;;18.21;65.74
64841;BME280;51307;52.162;7.560;2023-08-06T09:25:47;99971.34;;;17.87;65.82
64841;BME280;51307;52.162;7.560;2023-08-06T09:28:12;99970.84;;;18.39;64.42
64841;BME280;51307;52.162;7.560;2023-08-06T09:30:38;99970.78;;;18.27;64.44
64841;BME280;51307;52.162;7.560;2023-08-06T09:33:08;99973.91;;;18.42;63.30
64841;BME280;51307;52.162;7.560;2023-08-06T09:35:35;99975.41;;;18.38;64.11
64841;BME280;51307;52.162;7.560;2023-08-06T09:38:08;99970.75;;;18.15;66.51
64841;BME280;51307;52.162;7.560;2023-08-06T09:40:36;99973.25;;;18.28;67.41
64841;BME280;51307;52.162;7.560;2023-08-06T09:43:06;99978.88;;;18.15;66.64
64841;BME280;51307;52.162;7.560;2023-08-06T09:45:36;99980.56;;;18.28;65.48
64841;BME280;51307;52.162;7.560;2023-08-06T09:48:07;99983.66;;;18.01;66.62
64841;BME280;51307;52.162;7.560;2023-08-06T09:50:35;99979.09;;;18.13;65.85
64841;BME280;51307;52.162;7.560;2023-08-06T09:53:03;99982.19;;;18.17;65.86
64841;BME280;51307;52.162;7.560;2023-08-06T09:55:29;99984.41;;;18.20;64.67
64841;BME280;51307;52.162;7.560;2023-08-06T09:57:55;99984.38;;;18.08;67.13
64841;BME280;51307;52.162;7.560;2023-08-06T10:00:22;99984.19;;;18.22;66.33
64841;BME280;51307;52.162;7.560;2023-08-06T10:02:54;99987.59;;;17.87;66.31
64841;BME280;51307;52.162;7.560;2023-08-06T10:05:26;99985.03;;;18.22;66.40
64841;BME280;51307;52.162;7.560;2023-08-06T10:08:01;99999.56;;;18.09;66.49
64841;BME280;51307;52.162;7.560;2023-08-06T10:10:28;99990.22;;;18.24;65.78
64841;BME280;51307;52.162;7.560;2023-08-06T10:12:57;99991.34;;;18.35;65.41
64841;BME280;51307;52.162;7.560;2023-08-06T10:15:26;99989.22;;;18.48;64.53
64841;BME280;51307;52.162;7.560;2023-08-06T10:17:56;99986.53;;;18.48;64.17
64841;BME280;51307;52.162;7.560;2023-08-06T10:20:23;99985.13;;;18.58;64.42
64841;BME280;51307;52.162;7.560;2023-08-06T10:23:06;99976.50;;;18.49;64.53
64841;BME280;51307;52.162;7.560;2023-08-06T10:25:34;99981.38;;;18.71;64.86
64841;BME280;51307;52.162;7.560;2023-08-06T10:28:06;99976.78;;;18.71;64.36
64841;BME280;51307;52.162;7.560;2023-08-06T10:30:58;99976.53;;;18.61;64.98
64841;BME280;51307;52.162;7.560;2023-08-06T10:33:46;99979.47;;;18.59;64.64
64841;BME280;51307;52.162;7.560;2023-08-06T10:36:13;99975.97;;;18.71;64.04
64841;BME280;51307;52.162;7.560;2023-08-06T10:38:50;99967.25;;;18.69;64.04
64841;BME280;51307;52.162;7.560;2023-08-06T10:41:29;99975.00;;;18.65;63.97
64841;BME280;51307;52.162;7.560;2023-08-06T10:44:10;99965.72;;;18.73;63.61
64841;BME280;51307;52.162;7.560;2023-08-06T10:46:38;99964.63;;;18.62;63.20
64841;BME280;51307;52.162;7.560;2023-08-06T10:49:04;99962.84;;;18.56;62.77
64841;BME280;51307;52.162;7.560;2023-08-06T10:51:33;99965.13;;;18.94;63.00
64841;BME280;51307;52.162;7.560;2023-08-06T10:53:59;99969.47;;;18.84;61.82
64841;BME280;51307;52.162;7.560;2023-08-06T10:56:25;99964.63;;;18.97;61.48
64841;BME280;51307;52.162;7.560;2023-08-06T10:58:57;99962.97;;;19.08;61.66
64841;BME280;51307;52.162;7.560;2023-08-06T11:01:24;99962.78;;;19.10;60.63
64841;BME280;51307;52.162;7.560;2023-08-06T11:03:50;99965.13;;;18.59;62.16
64841;BME280;51307;52.162;7.560;2023-08-06T11:06:22;99965.00;;;18.77;63.19
64841;BME280;51307;52.162;7.560;2023-08-06T11:08:57;99961.00;;;18.68;63.33
64841;BME280;51307;52.162;7.560;2023-08-06T11:11:23;99961.34;;;18.84;62.67
64841;BME280;51307;52.162;7.560;2023-08-06T11:13:51;99962.16;;;18.96;63.05
64841;BME280;51307;52.162;7.560;2023-08-06T11:16:19;99959.81;;;19.11;61.62
64841;BME280;51307;52.162;7.560;2023-08-06T11:18:45;99958.63;;;19.19;61.98
64841;BME280;51307;52.162;7.560;2023-08-06T11:21:10;99958.84;;;19.18;61.87
64841;BME280;51307;52.162;7.560;2023-08-06T11:23:39;99953.81;;;19.21;62.44
64841;BME280;51307;52.162;7.560;2023-08-06T11:26:05;99958.53;;;19.14;62.97
64841;BME280;51307;52.162;7.560;2023-08-06T11:28:33;99963.09;;;19.13;62.81
64841;BME280;51307;52.162;7.560;2023-08-06T11:30:59;99955.69;;;19.09;61.91
64841;BME280;51307;52.162;7.560;2023-08-06T11:33:28;99965.34;;;19.05;61.98
64841;BME280;51307;52.162;7.560;2023-08-06T11:35:58;99959.44;;;19.08;62.20
64841;BME280;51307;52.162;7.560;2023-08-06T11:38:32;99959.81;;;19.00;62.90
64841;BME280;51307;52.162;7.560;2023-08-06T11:40:58;99962.06;;;18.67;63.96
64841;BME280;51307;52.162;7.560;2023-08-06T11:43:24;99960.28;;;18.73;63.85
64841;BME280;51307;52.162;7.560;2023-08-06T11:45:50;99960.03;;;18.74;63.83
64841;BME280;51307;52.162;7.560;2023-08-06T11:48:16;99960.41;;;18.90;62.79
64841;BME280;51307;52.162;7.560;2023-08-06T11:50:43;99952.88;;;18.92;62.83
64841;BME280;51307;52.162;7.560;2023-08-06T11:53:15;99953.09;;;19.02;62.91
64841;BME280;51307;52.162;7.560;2023-08-06T11:55:44;99953.94;;;18.67;63.52
64841;BME280;51307;52.162;7.560;2023-08-06T11:58:12;99951.13;;;18.86;63.18
64841;BME280;51307;52.162;7.560;2023-08-06T12:00:38;99942.75;;;18.99;62.42
64841;BME280;51307;52.162;7.560;2023-08-06T12:03:09;99950.84;;;19.11;63.14
64841;BME280;51307;52.162;7.560;2023-08-06T12:05:35;99950.97;;;19.16;61.39
64841;BME280;51307;52.162;7.560;2023-08-06T12:08:02;99951.78;;;19.17;61.62
64841;BME280;51307;52.162;7.560;2023-08-06T12:10:30;99954.47;;;19.40;61.38
64841;BME280;51307;52.162;7.560;2023-08-06T12:12:58;99948.00;;;19.18;62.96
64841;BME280;51307;52.162;7.560;2023-08-06T12:15:27;99946.84;;;19.25;62.91
64841;BME280;51307;52.162;7.560;2023-08-06T12:17:53;99941.66;;;19.00;62.22
64841;BME280;51307;52.162;7.560;2023-08-06T12:20:19;99950.09;;;19.39;60.67
64841;BME280;51307;52.162;7.560;2023-08-06T12:22:44;99946.22;;;19.35;61.50
64841;BME280;51307;52.162;7.560;2023-08-06T12:25:13;99937.25;;;19.46;60.35
64841;BME280;51307;52.162;7.560;2023-08-06T12:27:43;99942.06;;;19.56;60.25
64841;BME280;51307;52.162;7.560;2023-08-06T12:30:11;99940.66;;;19.54;61.06
64841;BME280;51307;52.162;7.560;2023-08-06T12:32:37;99940.81;;;19.76;59.73
64841;BME280;51307;52.162;7.560;2023-08-06T12:35:04;99942.06;;;19.56;61.00
64841;BME280;51307;52.162;7.560;2023-08-06T12:37:30;99938.81;;;19.30;59.77
64841;BME280;51307;52.162;7.560;2023-08-06T12:39:55;99939.88;;;19.70;58.58
64841;BME280;51307;52.162;7.560;2023-08-06T12:42:21;99934.53;;;19.46;58.84
64841;BME280;51307;52.162;7.560;2023-08-06T12:44:52;99937.94;;;19.54;57.46
64841;BME280;51307;52.162;7.560;2023-08-06T12:47:18;99932.97;;;19.62;57.38
64841;BME280;51307;52.162;7.560;2023-08-06T12:49:45;99940.22;;;19.33;57.85
64841;BME280;51307;52.162;7.560;2023-08-06T12:52:11;99937.09;;;19.65;58.38
64841;BME280;51307;52.162;7.560;2023-08-06T12:54:38;99935.84;;;19.44;58.42
64841;BME280;51307;52.162;7.560;2023-08-06T12:57:06;99937.91;;;19.65;58.02
64841;BME280;51307;52.162;7.560;2023-08-06T12:59:32;99931.78;;;19.87;57.08
64841;BME280;51307;52.162;7.560;2023-08-06T13:02:05;99932.06;;;20.03;58.62
64841;BME280;51307;52.162;7.560;2023-08-06T13:04:30;99934.81;;;20.20;57.12